Terminal Aerodrome Forecast
Issued by NWS

Home | Current Version | Previous Version | Text Only | Print | Product List | Glossary On
Versions: 1 2 3 4 5 6 7 8 9 10 11 12 13 14 15 16 17 18 19 20 21
920
FTUS43 KAPX 110229 AAA
TAFTVC
TAF AMD
KTVC 110229Z 1102/1124 33012G18KT 2SM -SHSN OVC018
      TEMPO 1102/1104 1/2SM SHSN BLSN
     FM110400 32010G16KT 4SM -SHSN BLSN SCT025 OVC035
     FM110700 32008KT 2SM -SHSN OVC030
     FM111900 30008KT P6SM VCSH OVC035=

USA.gov is the U.S. government's official web portal to all federal, state and local government web resources and services.